createdAt,value
2023-12-14T00:02:35.075Z,5.11
2023-12-14T00:07:34.842Z,5.12
2023-12-14T00:12:34.972Z,5.12
2023-12-14T00:17:34.827Z,5.15
2023-12-14T00:22:35.146Z,5.14
2023-12-14T00:27:34.795Z,5.13
2023-12-14T00:32:34.995Z,5.13
2023-12-14T00:37:34.854Z,5.13
2023-12-14T00:42:34.908Z,5.14
2023-12-14T00:47:34.849Z,5.15
2023-12-14T00:52:34.925Z,5.17
2023-12-14T00:57:34.792Z,5.19
2023-12-14T01:02:34.966Z,5.19
2023-12-14T01:07:34.799Z,5.2
2023-12-14T01:12:34.949Z,5.22
2023-12-14T01:17:34.763Z,5.22
2023-12-14T01:22:34.918Z,5.25
2023-12-14T01:27:34.750Z,5.26
2023-12-14T01:32:34.943Z,5.26
2023-12-14T01:37:34.792Z,5.25
2023-12-14T01:42:34.927Z,5.25
2023-12-14T01:47:34.753Z,5.25
2023-12-14T01:52:34.884Z,5.22
2023-12-14T01:57:34.761Z,5.19
2023-12-14T02:02:34.838Z,5.17
2023-12-14T02:07:34.758Z,5.16
2023-12-14T02:12:35.052Z,5.13
2023-12-14T02:17:34.744Z,5.17
2023-12-14T02:22:34.853Z,5.18
2023-12-14T02:27:34.731Z,5.18
2023-12-14T02:32:34.996Z,5.17
2023-12-14T02:37:34.803Z,5.18
2023-12-14T03:07:34.681Z,5.22
2023-12-14T03:12:34.901Z,5.23
2023-12-14T03:47:34.679Z,5.12
2023-12-14T03:52:35.050Z,5.08
2023-12-14T04:12:34.859Z,5.08
2023-12-14T04:17:34.733Z,5.09
2023-12-14T04:22:35.101Z,5.07
2023-12-14T04:37:34.624Z,5.04
2023-12-14T04:52:34.842Z,5.09
2023-12-14T05:27:34.587Z,5.12
2023-12-14T05:37:34.595Z,5.11
2023-12-14T05:47:34.598Z,5.11
2023-12-14T05:52:35.002Z,5.11
2023-12-14T05:57:34.560Z,5.11
2023-12-14T06:02:34.966Z,5.1
2023-12-14T06:07:34.578Z,5.07
2023-12-14T06:12:34.746Z,5.07
2023-12-14T06:17:34.605Z,5.05
2023-12-14T06:22:34.999Z,5.03
2023-12-14T06:27:34.538Z,4.98
2023-12-14T06:32:35.012Z,4.9
2023-12-14T06:37:34.562Z,4.83
2023-12-14T06:42:34.737Z,4.8
2023-12-14T06:47:34.598Z,4.8
2023-12-14T07:02:34.670Z,4.83
2023-12-14T07:32:34.843Z,4.81
2023-12-14T07:42:34.766Z,4.89
2023-12-14T07:47:34.530Z,4.89
2023-12-14T08:07:34.485Z,5.04
2023-12-14T08:17:34.478Z,5.11
2023-12-14T08:52:34.727Z,5.56
2023-12-14T09:17:36.814Z,5.66
2023-12-14T09:27:34.700Z,5.72
2023-12-14T09:32:34.476Z,5.77
2023-12-14T09:37:34.560Z,5.74
2023-12-14T09:42:34.423Z,5.74
2023-12-14T09:47:34.657Z,5.75
2023-12-14T09:52:34.441Z,5.85
2023-12-14T09:57:34.592Z,5.99
2023-12-14T10:02:34.429Z,6.06
2023-12-14T10:07:34.476Z,6.12
2023-12-14T10:12:34.433Z,6.09
2023-12-14T10:17:34.722Z,6.2
2023-12-14T10:22:34.403Z,6.36
2023-12-14T10:27:34.573Z,6.45
2023-12-14T10:32:34.493Z,6.42
2023-12-14T10:37:34.633Z,6.42
2023-12-14T10:42:34.404Z,6.42
2023-12-14T10:47:34.929Z,6.49
2023-12-14T10:52:34.390Z,6.68
2023-12-14T10:57:34.647Z,6.8
2023-12-14T11:02:34.359Z,6.93
2023-12-14T11:07:34.558Z,7
2023-12-14T11:12:34.352Z,7
2023-12-14T11:17:34.601Z,7
2023-12-14T11:22:34.349Z,7.2
2023-12-14T11:27:34.596Z,7.24
2023-12-14T11:32:34.350Z,7.17
2023-12-14T11:42:34.342Z,7.21
2023-12-14T11:47:34.434Z,7.21
2023-12-14T11:52:34.347Z,7.15
2023-12-14T11:57:34.498Z,7.26
2023-12-14T12:02:34.292Z,7.3
2023-12-14T12:07:34.475Z,7.32
2023-12-14T12:12:35.346Z,7.44
2023-12-14T12:17:34.546Z,7.53
2023-12-14T12:22:34.304Z,7.5
2023-12-14T12:27:34.477Z,7.49
2023-12-14T12:32:34.351Z,7.41
2023-12-14T12:37:34.410Z,7.49
2023-12-14T12:42:34.299Z,7.52
2023-12-14T12:47:34.711Z,7.49
2023-12-14T12:52:34.297Z,7.57
2023-12-14T12:57:34.438Z,7.8
2023-12-14T13:02:34.271Z,7.84
2023-12-14T13:07:34.459Z,7.68
2023-12-14T13:12:34.248Z,7.54
2023-12-14T13:17:34.527Z,7.38
2023-12-14T13:22:34.246Z,7.2
2023-12-14T13:27:34.406Z,7
2023-12-14T13:32:34.299Z,6.77
2023-12-14T13:37:34.758Z,6.56
2023-12-14T13:42:34.260Z,6.52
2023-12-14T13:47:34.528Z,6.59
2023-12-14T13:52:34.232Z,6.56
2023-12-14T13:57:34.366Z,6.59
2023-12-14T14:02:34.217Z,6.68
2023-12-14T14:07:34.399Z,6.98
2023-12-14T14:12:34.511Z,7.16
2023-12-14T14:17:34.313Z,6.93
2023-12-14T14:22:34.231Z,6.72
2023-12-14T14:27:34.213Z,6.63
2023-12-14T14:32:34.605Z,6.43
2023-12-14T14:37:34.198Z,6.19
2023-12-14T14:42:34.300Z,6.03
2023-12-14T14:52:34.347Z,5.83
2023-12-14T14:57:34.205Z,5.77
2023-12-14T15:02:34.543Z,5.72
2023-12-14T15:07:34.162Z,5.59
2023-12-14T15:12:34.318Z,5.58
2023-12-14T15:17:34.287Z,5.58
2023-12-14T15:22:34.554Z,5.53
2023-12-14T15:27:34.200Z,5.49
2023-12-14T15:32:34.341Z,5.46
2023-12-14T15:37:34.135Z,5.4
2023-12-14T15:42:34.255Z,5.34
2023-12-14T15:47:34.175Z,5.28
2023-12-14T15:52:34.344Z,5.17
2023-12-14T15:57:34.133Z,4.98
2023-12-14T16:02:34.336Z,4.69
2023-12-14T16:07:34.155Z,4.41
2023-12-14T16:12:34.396Z,4.2
2023-12-14T16:17:34.183Z,4.19
2023-12-14T16:22:34.407Z,4.2
2023-12-14T16:27:34.224Z,4.19
2023-12-14T16:32:34.394Z,4.2
2023-12-14T16:37:34.115Z,4.2
2023-12-14T16:42:34.514Z,4.2
2023-12-14T16:47:34.219Z,4.2
2023-12-14T16:52:34.203Z,4.2
2023-12-14T16:57:34.069Z,4.2
2023-12-14T17:02:34.261Z,4.21
2023-12-14T17:07:34.106Z,4.26
2023-12-14T17:12:34.328Z,4.26
2023-12-14T17:17:34.077Z,4.31
2023-12-14T17:22:34.473Z,4.33
2023-12-14T17:27:34.285Z,4.33
2023-12-14T17:32:34.291Z,4.37
2023-12-14T17:37:34.412Z,4.43
2023-12-14T18:27:34.226Z,4.81
2023-12-14T18:42:34.001Z,4.89
2023-12-14T19:22:33.985Z,5.11
2023-12-14T19:47:34.196Z,5.12
2023-12-14T20:02:34.060Z,5.08
2023-12-14T20:07:34.143Z,5.07
2023-12-14T20:22:34.025Z,4.98
2023-12-14T20:27:34.206Z,4.98
2023-12-14T20:32:34.140Z,4.98
2023-12-14T20:37:34.173Z,4.98
2023-12-14T20:42:33.997Z,4.98
2023-12-14T20:47:34.137Z,4.99
2023-12-14T20:52:35.100Z,5.01
2023-12-14T20:57:34.341Z,5.02
2023-12-14T21:02:33.966Z,5.02
2023-12-14T21:07:34.206Z,5.03
2023-12-14T21:12:33.932Z,5.02
2023-12-14T21:22:34.002Z,4.97
2023-12-14T21:47:34.051Z,5.05
2023-12-14T22:07:34.072Z,5.12
2023-12-14T22:17:34.059Z,5.11
2023-12-14T22:47:34.074Z,4.89
2023-12-14T22:52:33.825Z,4.86
2023-12-14T22:57:33.922Z,4.82
2023-12-14T23:07:33.948Z,4.75
2023-12-14T23:32:33.924Z,4.61
2023-12-14T23:37:34.181Z,4.61
2023-12-14T23:47:33.964Z,4.63
2023-12-14T23:57:33.886Z,4.65
